CheckWX is a tool to help pilots better visualize weather data.  It is not intended as a substitute for an official pre-flight weather briefing.

05:18:26 UTC

KGUY METAR
Guymon Municipal Airport
Guymon, Oklahoma, USA
Current

25 mins ago

KGUY 260453Z AUTO 17008KT 10SM CLR 25/19 A2979 RMK AO2 SLP036 T02500189 $
Observed
Aug-26 @ 04:53 UTC
Wind
  • 170° at 8 KTS
Visibility
10 SM
Flight Rules
VFR
Cloud Levels
  • Clear skies
Temperature
25°C / 77°F
Dewpoint
19°C / 66°F
Humidity
69%
Altimeter
29.79" Hg
Pressure
1008.82 hPa
Previous

1 hour ago

KGUY 260353Z AUTO 17006KT 10SM CLR 24/19 A2980 RMK AO2 SLP043 T02390189 $
Observed
Aug-26 @ 03:53 UTC
Wind
  • 170° at 6 KTS
Visibility
10 SM
Flight Rules
VFR
Cloud Levels
  • Clear skies
Temperature
24°C / 75°F
Dewpoint
19°C / 66°F
Humidity
74%
Altimeter
29.8" Hg
Pressure
1009.12 hPa
Previous

2 hours ago

KGUY 260253Z AUTO 15006KT 10SM CLR 26/19 A2980 RMK AO2 SLP042 T02560194 53002 $
Observed
Aug-26 @ 02:53 UTC
Wind
  • 150° at 6 KTS
Visibility
10 SM
Flight Rules
VFR
Cloud Levels
  • Clear skies
Temperature
26°C / 79°F
Dewpoint
19°C / 66°F
Humidity
65%
Altimeter
29.8" Hg
Pressure
1009.12 hPa